Time;durP1;ratioP1;P1;durP2;ratioP2;P2;SDS_P1;SDS_P2;PMS_P1;PMS_P2;Temp;Humidity;BMP_temperature;BMP_pressure;BME280_temperature;BME280_humidity;BME280_pressure;Samples;Min_cycle;Max_cycle;Signal;HPM_P1;HPM_P2
2021/04/25 00:00:15;;;;;;;18.15;9.43;;;;;;;3.59;66.72;101350.97;5022961;28;20116;-75
2021/04/25 00:02:40;;;;;;;21.55;9.52;;;;;;;3.66;66.83;101363.38;5017859;28;20030;-75
2021/04/25 00:05:07;;;;;;;18.40;9.52;;;;;;;3.62;66.86;101369.34;5022046;28;20529;-75
2021/04/25 00:07:33;;;;;;;16.52;8.48;;;;;;;3.57;66.84;101370.03;5022042;28;20037;-75
2021/04/25 00:09:58;;;;;;;15.23;8.57;;;;;;;3.61;66.80;101358.84;5021368;28;20383;-76
2021/04/25 00:12:23;;;;;;;14.95;7.97;;;;;;;3.72;66.51;101361.00;5020022;28;20034;-76
2021/04/25 00:14:49;;;;;;;15.48;8.90;;;;;;;3.81;66.12;101363.03;4999921;28;20610;-76
2021/04/25 00:17:14;;;;;;;16.17;8.75;;;;;;;3.89;66.04;101364.19;5021398;28;20049;-76
2021/04/25 00:19:40;;;;;;;13.02;7.32;;;;;;;3.97;65.93;101371.41;5021229;28;20041;-76
2021/04/25 00:22:05;;;;;;;12.88;7.63;;;;;;;4.01;65.38;101362.81;5022590;28;20033;-75
2021/04/25 00:24:30;;;;;;;13.68;7.30;;;;;;;4.10;64.84;101357.91;5021479;28;20127;-76
2021/04/25 00:26:56;;;;;;;12.45;6.00;;;;;;;4.13;64.49;101364.13;5021125;28;20059;-76
2021/04/25 00:29:21;;;;;;;13.00;6.40;;;;;;;4.19;64.02;101363.44;5023093;28;20371;-75
2021/04/25 00:31:47;;;;;;;11.43;5.95;;;;;;;4.23;63.94;101360.09;5021065;28;20042;-75
2021/04/25 00:34:12;;;;;;;13.98;7.00;;;;;;;4.22;63.94;101366.16;5020806;28;20041;-75
2021/04/25 00:36:37;;;;;;;11.27;6.65;;;;;;;4.23;64.14;101357.47;5022756;28;20049;-75
2021/04/25 00:39:04;;;;;;;15.23;7.90;;;;;;;4.31;65.02;101365.56;5021499;28;20080;-76
2021/04/25 00:41:29;;;;;;;15.30;7.00;;;;;;;4.30;65.17;101359.47;5020124;28;20048;-76
2021/04/25 00:43:54;;;;;;;11.70;6.13;;;;;;;4.38;64.18;101354.50;5022678;28;20034;-75
2021/04/25 00:46:20;;;;;;;12.00;6.50;;;;;;;4.49;63.74;101349.59;5021549;28;20034;-76
2021/04/25 00:48:45;;;;;;;14.27;6.82;;;;;;;4.52;63.54;101341.84;5020336;28;20042;-76
2021/04/25 00:51:13;;;;;;;10.77;6.35;;;;;;;4.47;64.23;101346.03;5016682;28;20383;-75
2021/04/25 00:53:42;;;;;;;13.63;7.95;;;;;;;4.43;64.03;101341.53;5019850;28;20041;-76
2021/04/25 00:56:07;;;;;;;22.25;8.35;;;;;;;4.32;64.29;101335.97;5022599;28;20069;-75
2021/04/25 00:58:33;;;;;;;13.70;7.43;;;;;;;4.31;64.52;101340.31;5021081;28;20131;-75
2021/04/25 01:00:58;;;;;;;13.00;6.75;;;;;;;4.43;63.85;101346.78;5020295;28;20199;-75
2021/04/25 01:03:23;;;;;;;11.50;6.22;;;;;;;4.25;63.84;101353.19;5022283;28;20029;-75
2021/04/25 01:05:50;;;;;;;11.00;5.97;;;;;;;4.33;63.73;101343.00;5021055;28;20034;-75
2021/04/25 01:08:15;;;;;;;10.88;5.00;;;;;;;4.51;63.25;101340.97;5020141;28;20113;-75
2021/04/25 01:10:41;;;;;;;10.70;5.70;;;;;;;4.61;62.87;101337.81;5016226;28;20140;-75
2021/04/25 01:13:06;;;;;;;9.65;6.20;;;;;;;4.74;62.54;101339.06;5047063;22;20037;-78
2021/04/25 01:15:32;;;;;;;13.93;5.50;;;;;;;4.78;62.45;101347.88;5063499;28;20040;-79
2021/04/25 01:17:57;;;;;;;12.15;5.28;;;;;;;4.81;62.32;101342.75;5045603;28;20033;-78
2021/04/25 01:20:23;;;;;;;11.70;6.30;;;;;;;4.80;63.18;101339.25;5064320;28;20029;-79
2021/04/25 01:22:48;;;;;;;8.50;5.03;;;;;;;4.82;63.48;101337.56;5062794;28;20439;-78
2021/04/25 01:25:16;;;;;;;10.63;5.72;;;;;;;4.83;63.39;101333.22;5062291;28;20045;-78
2021/04/25 01:27:42;;;;;;;10.52;5.82;;;;;;;4.64;64.40;101339.63;5062932;28;20039;-78
2021/04/25 01:30:10;;;;;;;9.60;5.38;;;;;;;4.70;64.21;101339.81;5064088;28;20032;-78
2021/04/25 01:32:39;;;;;;;10.18;5.60;;;;;;;4.74;64.13;101332.94;5063532;28;20082;-78
2021/04/25 01:35:05;;;;;;;11.43;6.00;;;;;;;4.80;64.45;101328.78;5066750;28;20465;-78
2021/04/25 01:37:30;;;;;;;14.82;5.80;;;;;;;4.85;64.11;101334.16;5067199;28;20059;-78
2021/04/25 01:39:56;;;;;;;10.55;5.63;;;;;;;4.92;63.45;101329.97;5050817;28;20054;-78
2021/04/25 01:42:22;;;;;;;10.70;5.40;;;;;;;4.97;63.49;101333.63;5066481;28;20033;-78
2021/04/25 01:44:47;;;;;;;9.77;5.82;;;;;;;5.00;63.41;101332.00;5067177;28;20037;-78
2021/04/25 01:47:12;;;;;;;10.50;5.82;;;;;;;4.95;63.48;101336.22;5066988;28;20047;-78
2021/04/25 01:49:38;;;;;;;8.98;5.50;;;;;;;4.90;63.66;101334.28;5067205;28;20048;-78
2021/04/25 01:52:03;;;;;;;8.27;4.57;;;;;;;4.95;63.69;101328.38;5066112;28;20043;-78
2021/04/25 01:54:29;;;;;;;10.10;5.50;;;;;;;4.91;63.19;101316.03;5066473;28;20095;-79
2021/04/25 01:56:54;;;;;;;12.30;5.22;;;;;;;4.86;63.82;101317.63;5066249;28;20056;-78
2021/04/25 01:59:19;;;;;;;11.68;6.00;;;;;;;4.72;64.37;101319.81;5063096;28;20037;-78
2021/04/25 02:01:45;;;;;;;9.43;5.60;;;;;;;4.81;64.76;101327.06;5065831;28;20061;-78
2021/04/25 02:04:12;;;;;;;11.00;6.07;;;;;;;4.85;64.78;101326.31;5067722;28;20037;-78
2021/04/25 02:06:42;;;;;;;8.80;5.22;;;;;;;4.81;64.63;101322.69;5067307;28;20056;-79
2021/04/25 02:09:07;;;;;;;8.98;5.85;;;;;;;4.67;67.24;101331.00;5066801;28;20040;-78
2021/04/25 02:11:32;;;;;;;11.27;5.82;;;;;;;4.64;65.83;101331.78;5067768;28;20111;-78
2021/04/25 02:13:58;;;;;;;11.05;5.80;;;;;;;4.66;65.87;101335.31;5066319;28;20060;-79
2021/04/25 02:16:23;;;;;;;10.18;5.55;;;;;;;4.71;64.91;101327.59;5067348;28;20045;-78
2021/04/25 02:18:48;;;;;;;10.52;5.50;;;;;;;4.83;64.68;101322.75;5067392;28;20040;-78
2021/04/25 02:21:14;;;;;;;11.60;5.20;;;;;;;4.94;64.55;101317.84;5069413;28;20056;-78
2021/04/25 02:23:39;;;;;;;12.60;5.07;;;;;;;5.00;63.87;101320.63;5070835;28;20056;-78
2021/04/25 02:26:05;;;;;;;10.00;5.05;;;;;;;5.07;63.89;101327.81;5069008;28;20028;-79
2021/04/25 02:28:31;;;;;;;8.00;4.72;;;;;;;5.18;63.35;101315.91;5071670;28;20020;-79
2021/04/25 02:30:56;;;;;;;10.75;4.55;;;;;;;5.25;63.54;101312.63;5069550;28;20199;-79
2021/04/25 02:33:22;;;;;;;10.52;5.07;;;;;;;5.33;63.31;101309.34;5073884;28;20024;-78
2021/04/25 02:35:47;;;;;;;11.55;5.15;;;;;;;5.40;63.08;101311.31;5078802;28;20046;-78
2021/04/25 02:38:13;;;;;;;9.98;5.45;;;;;;;5.31;64.08;101305.81;5069324;28;20083;-78
2021/04/25 02:40:38;;;;;;;10.23;5.35;;;;;;;5.37;63.88;101311.19;5072631;28;20037;-79
2021/04/25 02:43:04;;;;;;;8.02;4.45;;;;;;;5.39;63.09;101305.16;5068735;28;20029;-79
2021/04/25 02:45:30;;;;;;;8.65;4.95;;;;;;;5.42;63.24;101304.34;5077937;28;20175;-78
2021/04/25 02:48:02;;;;;;;10.32;5.25;;;;;;;5.10;66.12;101300.84;5073094;28;20045;-78
2021/04/25 02:50:30;;;;;;;10.23;5.53;;;;;;;4.78;67.36;101314.75;5071056;28;20474;-78
2021/04/25 02:52:56;;;;;;;11.32;6.70;;;;;;;4.82;67.21;101308.81;5070160;28;20058;-78
2021/04/25 02:55:22;;;;;;;13.75;8.55;;;;;;;4.84;66.86;101320.16;5069521;28;20508;-79
2021/04/25 02:57:47;;;;;;;12.95;7.50;;;;;;;4.89;66.82;101316.81;5069803;28;20033;-79
2021/04/25 03:00:16;;;;;;;10.82;6.80;;;;;;;4.93;66.27;101313.47;5065378;28;20040;-78
2021/04/25 03:02:42;;;;;;;12.98;6.30;;;;;;;4.98;66.00;101311.88;5060553;28;20032;-78
2021/04/25 03:05:08;;;;;;;11.55;7.15;;;;;;;5.08;66.29;101306.03;5065361;28;20508;-79
2021/04/25 03:07:33;;;;;;;12.55;7.00;;;;;;;5.17;65.40;101316.78;5065949;28;20027;-79
2021/04/25 03:09:59;;;;;;;11.15;7.05;;;;;;;5.24;65.39;101305.66;5065796;28;20033;-79
2021/04/25 03:12:24;;;;;;;15.60;7.05;;;;;;;5.28;65.10;101312.72;5065615;28;20035;-78
2021/04/25 03:14:50;;;;;;;8.07;5.15;;;;;;;5.39;65.06;101314.75;5063521;28;20092;-78
2021/04/25 03:17:15;;;;;;;10.68;5.38;;;;;;;5.38;65.07;101313.00;5065268;28;20040;-79
2021/04/25 03:19:40;;;;;;;8.43;4.82;;;;;;;5.38;64.71;101318.22;5047607;28;20028;-78
2021/04/25 03:22:06;;;;;;;8.88;5.30;;;;;;;5.25;66.10;101320.50;5064090;28;20037;-78
2021/04/25 03:24:31;;;;;;;9.57;4.75;;;;;;;5.13;66.03;101320.13;5063397;28;20041;-78
2021/04/25 03:26:56;;;;;;;9.60;5.28;;;;;;;5.07;65.70;101324.31;5064997;28;20045;-78
2021/04/25 03:29:22;;;;;;;9.52;4.88;;;;;;;5.12;65.54;101321.00;5064144;28;20052;-79
2021/04/25 03:31:47;;;;;;;9.85;5.30;;;;;;;5.17;65.29;101323.75;5066628;28;20048;-79
2021/04/25 03:34:13;;;;;;;9.88;4.68;;;;;;;5.21;65.26;101321.25;5066279;28;20051;-78
2021/04/25 03:36:38;;;;;;;9.52;3.95;;;;;;;5.32;64.69;101318.03;5063245;28;20546;-78
2021/04/25 03:39:06;;;;;;;9.00;4.07;;;;;;;5.39;64.38;101318.25;5059836;28;20083;-78
2021/04/25 03:41:31;;;;;;;6.15;3.70;;;;;;;5.45;64.11;101307.97;5064124;28;20057;-79
2021/04/25 03:43:57;;;;;;;9.20;4.05;;;;;;;5.49;63.83;101311.53;5065388;28;20025;-78
2021/04/25 03:46:22;;;;;;;7.47;3.40;;;;;;;5.53;63.46;101312.50;5063720;28;20071;-78
2021/04/25 03:48:48;;;;;;;6.78;3.60;;;;;;;5.56;62.88;101320.47;5058159;28;20098;-78
2021/04/25 03:51:13;;;;;;;7.20;3.55;;;;;;;5.51;62.16;101308.97;5056089;28;20040;-77
2021/04/25 03:53:38;;;;;;;7.65;3.28;;;;;;;5.52;62.20;101314.22;5057583;28;20104;-78
2021/04/25 03:56:04;;;;;;;7.32;3.55;;;;;;;5.55;61.71;101314.31;5059487;28;20033;-78
2021/04/25 03:58:30;;;;;;;7.38;3.67;;;;;;;5.58;61.26;101317.03;5052264;28;20040;-78
2021/04/25 04:00:55;;;;;;;5.80;3.20;;;;;;;5.64;61.08;101313.69;5054485;28;20100;-77
2021/04/25 04:03:20;;;;;;;4.80;2.72;;;;;;;5.64;60.86;101311.06;5061872;28;20031;-78
2021/04/25 04:05:46;;;;;;;7.53;3.33;;;;;;;5.65;61.61;101307.59;5055323;28;20026;-77
2021/04/25 04:08:11;;;;;;;7.80;4.45;;;;;;;5.74;62.04;101320.03;5060873;28;20471;-78
2021/04/25 04:10:36;;;;;;;8.57;4.55;;;;;;;5.77;62.53;101314.91;5060421;28;20416;-78
2021/04/25 04:13:02;;;;;;;6.97;3.83;;;;;;;5.67;63.54;101317.25;5059173;28;20032;-77
2021/04/25 04:15:28;;;;;;;9.55;5.32;;;;;;;5.48;64.85;101325.50;5055255;28;20048;-77
2021/04/25 04:17:53;;;;;;;9.90;4.63;;;;;;;5.40;65.59;101322.66;5056491;28;20381;-76
2021/04/25 04:20:18;;;;;;;7.15;4.32;;;;;;;5.39;65.81;101330.47;5052182;28;20511;-78
2021/04/25 04:22:44;;;;;;;10.98;4.97;;;;;;;5.34;65.94;101332.06;5054887;28;20036;-77
2021/04/25 04:25:09;;;;;;;8.57;4.00;;;;;;;5.46;65.13;101328.06;5053182;28;20041;-78
2021/04/25 04:27:35;;;;;;;10.13;4.15;;;;;;;5.56;63.83;101315.22;5058950;28;20074;-79
2021/04/25 04:30:00;;;;;;;8.52;4.22;;;;;;;5.69;63.33;101325.19;5061935;28;20043;-78
2021/04/25 04:32:26;;;;;;;7.28;3.80;;;;;;;5.75;63.40;101319.22;5061907;28;20056;-78
2021/04/25 04:34:51;;;;;;;6.70;3.80;;;;;;;5.68;63.10;101319.03;5061715;28;20132;-78
2021/04/25 04:37:16;;;;;;;8.27;4.60;;;;;;;5.51;64.83;101325.56;5062212;28;20058;-78
2021/04/25 04:39:42;;;;;;;9.52;4.88;;;;;;;5.51;64.54;101330.81;5061720;28;20037;-77
2021/04/25 04:42:07;;;;;;;8.65;4.35;;;;;;;5.60;64.21;101336.28;5060833;28;20040;-78
2021/04/25 04:44:32;;;;;;;8.98;4.25;;;;;;;5.62;65.20;101337.22;5059811;28;20041;-78
2021/04/25 04:46:58;;;;;;;8.50;4.10;;;;;;;5.69;64.56;101326.06;5059892;28;20037;-78
2021/04/25 04:49:23;;;;;;;8.85;3.97;;;;;;;5.85;64.08;101329.09;5061433;28;20093;-78
2021/04/25 04:51:49;;;;;;;7.22;3.58;;;;;;;5.97;63.38;101332.03;5060657;28;20040;-78
2021/04/25 04:54:14;;;;;;;10.27;4.65;;;;;;;6.02;63.81;101334.78;5060189;28;20037;-78
2021/04/25 04:56:40;;;;;;;10.20;5.30;;;;;;;6.06;63.14;101332.28;5058881;28;20060;-78
2021/04/25 04:59:06;;;;;;;10.32;5.32;;;;;;;6.09;62.51;101327.09;5059973;28;20045;-78
2021/04/25 05:01:31;;;;;;;9.18;5.32;;;;;;;6.06;62.75;101334.00;5060489;28;20033;-77
2021/04/25 05:03:56;;;;;;;11.32;5.95;;;;;;;6.13;62.51;101333.28;5058000;28;20025;-77
2021/04/25 05:06:22;;;;;;;11.25;5.72;;;;;;;6.15;62.00;101327.25;5059091;28;20056;-78
2021/04/25 05:08:47;;;;;;;12.23;5.95;;;;;;;6.21;61.89;101325.63;5058304;28;20036;-78
2021/04/25 05:11:13;;;;;;;9.45;4.80;;;;;;;6.32;62.12;101332.03;5058433;28;20405;-78
2021/04/25 05:13:39;;;;;;;9.18;5.47;;;;;;;6.43;61.97;101325.28;5062023;28;20041;-77
2021/04/25 05:16:04;;;;;;;9.57;5.70;;;;;;;6.45;61.23;101334.09;5064055;28;20443;-78
2021/04/25 05:18:29;;;;;;;9.45;6.03;;;;;;;6.38;61.78;101331.28;5064300;28;20044;-78
2021/04/25 05:20:55;;;;;;;10.45;6.03;;;;;;;6.39;62.05;101331.31;5064089;28;20051;-78
2021/04/25 05:23:20;;;;;;;12.15;7.80;;;;;;;6.44;62.31;101340.16;5062173;28;20033;-78
2021/04/25 05:25:46;;;;;;;14.07;7.28;;;;;;;6.43;62.66;101340.16;5062071;28;20033;-78
2021/04/25 05:28:11;;;;;;;13.00;7.00;;;;;;;6.52;62.39;101335.09;5063143;28;20040;-77
2021/04/25 05:30:36;;;;;;;10.20;5.72;;;;;;;6.65;61.71;101341.53;5060206;28;20044;-76
2021/04/25 05:33:03;;;;;;;10.05;6.15;;;;;;;6.66;61.86;101344.19;5050521;28;20116;-75
2021/04/25 05:35:28;;;;;;;9.95;5.93;;;;;;;6.78;61.21;101340.94;5049511;28;20041;-76
2021/04/25 05:37:53;;;;;;;9.27;5.32;;;;;;;6.76;60.89;101342.69;5060214;28;20072;-78
2021/04/25 05:40:19;;;;;;;11.80;5.80;;;;;;;6.62;61.40;101349.31;5056037;28;20045;-76
2021/04/25 05:42:44;;;;;;;9.95;5.78;;;;;;;6.62;61.63;101346.69;5060340;28;20057;-78
2021/04/25 05:45:20;;;;;;;10.55;6.13;;;;;;;6.75;61.17;101346.13;5060318;28;20064;-76
2021/04/25 05:47:52;;;;;;;10.85;6.13;;;;;;;6.86;60.99;101339.38;5051431;28;20370;-76
2021/04/25 05:50:18;;;;;;;7.97;5.30;;;;;;;6.90;60.90;101335.09;5050561;28;20029;-77
2021/04/25 05:52:44;;;;;;;11.70;5.93;;;;;;;6.84;61.23;101333.22;5052322;28;20040;-77
2021/04/25 05:55:09;;;;;;;12.02;6.15;;;;;;;6.94;61.39;101335.22;5052804;28;20125;-76
2021/04/25 05:57:35;;;;;;;10.98;5.45;;;;;;;7.02;61.17;101337.97;5051464;28;20040;-77
2021/04/25 06:00:00;;;;;;;10.65;5.90;;;;;;;7.16;60.85;101335.66;5052146;28;20051;-76
2021/04/25 06:02:27;;;;;;;11.00;5.90;;;;;;;7.31;59.46;101333.34;5050809;28;20505;-76
2021/04/25 06:04:52;;;;;;;10.57;5.82;;;;;;;7.43;58.73;101332.69;5051190;28;20078;-77
2021/04/25 06:07:17;;;;;;;12.90;5.30;;;;;;;7.49;58.33;101329.28;5051775;28;20032;-76
2021/04/25 06:09:43;;;;;;;8.65;5.60;;;;;;;7.45;58.69;101329.22;5051783;28;20036;-76
2021/04/25 06:12:11;;;;;;;13.77;5.13;;;;;;;7.42;57.87;101331.81;5051335;28;20052;-77
2021/04/25 06:14:37;;;;;;;8.90;4.90;;;;;;;7.42;58.75;101331.81;5046369;28;20417;-76
2021/04/25 06:17:02;;;;;;;12.43;6.45;;;;;;;7.44;59.09;101331.81;5050509;28;20049;-75
2021/04/25 06:19:27;;;;;;;8.05;5.05;;;;;;;7.61;58.52;101337.41;5051028;28;20075;-76
2021/04/25 06:21:53;;;;;;;8.98;5.35;;;;;;;7.67;58.14;101332.25;5052959;28;20056;-76
2021/04/25 06:24:18;;;;;;;10.25;5.55;;;;;;;7.85;58.67;101334.34;5055657;28;20036;-77
2021/04/25 06:26:43;;;;;;;9.40;5.18;;;;;;;8.01;58.45;101333.72;5055826;28;20037;-77
2021/04/25 06:29:09;;;;;;;9.70;5.43;;;;;;;8.08;57.42;101343.50;5055085;28;20040;-77
2021/04/25 06:31:34;;;;;;;9.55;5.38;;;;;;;8.19;57.70;101341.06;5054402;28;20045;-76
2021/04/25 06:34:01;;;;;;;8.68;5.55;;;;;;;8.10;58.17;101338.28;5056442;28;20037;-76
2021/04/25 06:36:26;;;;;;;8.88;4.90;;;;;;;8.21;57.01;101339.34;5057752;28;20044;-77
2021/04/25 06:38:51;;;;;;;8.73;5.63;;;;;;;8.31;56.29;101333.38;5055984;28;20044;-77
2021/04/25 06:41:17;;;;;;;7.43;4.25;;;;;;;8.43;56.35;101335.31;5054900;28;20036;-78
2021/04/25 06:43:42;;;;;;;7.80;4.10;;;;;;;8.50;55.41;101344.22;5055271;28;20059;-79
2021/04/25 06:46:07;;;;;;;9.90;4.47;;;;;;;8.60;54.34;101342.63;5054717;28;20037;-77
2021/04/25 06:48:33;;;;;;;10.20;4.50;;;;;;;8.63;54.27;101351.44;5055502;28;20045;-77
2021/04/25 06:50:58;;;;;;;9.45;4.60;;;;;;;8.45;53.62;101349.41;5056550;28;20116;-77
2021/04/25 06:53:23;;;;;;;9.77;4.38;;;;;;;8.38;54.41;101355.38;5055406;28;20480;-77
2021/04/25 06:55:49;;;;;;;8.27;4.68;;;;;;;8.59;55.04;101361.88;5054214;28;20032;-77
2021/04/25 06:58:14;;;;;;;9.70;5.25;;;;;;;8.72;53.39;101361.19;5052238;28;20547;-75
2021/04/25 07:00:40;;;;;;;8.15;3.95;;;;;;;8.74;53.96;101370.00;5045495;28;20037;-77
2021/04/25 07:03:06;;;;;;;9.50;3.95;;;;;;;8.84;53.58;101356.13;5051481;28;20082;-79
2021/04/25 07:05:31;;;;;;;7.80;4.10;;;;;;;8.99;52.78;101356.34;5057410;28;20447;-79
2021/04/25 07:07:57;;;;;;;6.55;3.70;;;;;;;9.13;52.98;101353.88;5056831;28;20036;-78
2021/04/25 07:10:22;;;;;;;7.97;4.05;;;;;;;9.31;51.56;101355.84;5057905;28;20033;-80
2021/04/25 07:12:48;;;;;;;7.28;3.95;;;;;;;9.44;50.35;101362.16;5055643;28;20082;-80
2021/04/25 07:15:13;;;;;;;7.18;4.03;;;;;;;9.70;50.31;101361.59;5057552;28;20068;-79
2021/04/25 07:17:39;;;;;;;10.05;3.97;;;;;;;9.66;49.56;101358.88;5057105;28;20040;-81
2021/04/25 07:20:07;;;;;;;7.00;3.40;;;;;;;9.50;49.73;101356.94;5059389;28;20413;-81
2021/04/25 07:22:32;;;;;;;5.70;3.15;;;;;;;9.45;48.37;101353.38;5057403;28;20029;-79
2021/04/25 07:24:58;;;;;;;8.25;3.72;;;;;;;9.64;49.86;101352.75;5058275;28;20059;-77
2021/04/25 07:27:23;;;;;;;6.78;3.92;;;;;;;9.66;50.09;101360.63;5054944;28;20033;-76
2021/04/25 07:29:48;;;;;;;6.13;3.58;;;;;;;9.72;49.50;101359.81;5053521;28;20037;-77
2021/04/25 07:32:15;;;;;;;7.05;3.70;;;;;;;9.73;50.16;101357.22;5051724;28;20033;-76
2021/04/25 07:34:41;;;;;;;8.32;4.05;;;;;;;9.83;49.84;101348.53;5069164;22;20052;-76
2021/04/25 07:37:07;;;;;;;9.60;4.30;;;;;;;9.88;50.22;101348.59;5052664;28;20032;-75
2021/04/25 07:39:34;;;;;;;9.50;4.57;;;;;;;9.98;49.75;101345.16;5053144;28;20112;-74
2021/04/25 07:42:00;;;;;;;8.15;4.47;;;;;;;10.10;48.75;101349.66;5052580;28;20531;-76
2021/04/25 07:44:25;;;;;;;7.97;4.03;;;;;;;10.17;48.54;101342.69;5052516;28;20167;-76
2021/04/25 07:46:51;;;;;;;8.85;3.88;;;;;;;10.21;47.54;101347.09;5052502;28;20060;-75
2021/04/25 07:49:16;;;;;;;11.07;4.75;;;;;;;10.25;48.38;101349.78;5052377;28;20497;-76
2021/04/25 07:51:41;;;;;;;9.13;4.43;;;;;;;10.22;48.41;101348.91;5052161;28;20467;-75
2021/04/25 07:54:07;;;;;;;10.52;4.88;;;;;;;10.23;47.89;101348.00;5052099;28;20072;-75
2021/04/25 07:56:32;;;;;;;7.65;4.53;;;;;;;10.40;48.27;101356.09;5048511;28;20037;-75
2021/04/25 07:58:58;;;;;;;7.18;4.18;;;;;;;10.62;47.60;101351.84;5052196;28;20033;-75
2021/04/25 08:01:24;;;;;;;7.82;4.15;;;;;;;10.80;45.68;101351.97;5051879;28;20033;-76
2021/04/25 08:03:50;;;;;;;6.55;3.35;;;;;;;10.84;45.22;101352.88;5048309;28;20037;-75
2021/04/25 08:06:15;;;;;;;6.50;3.50;;;;;;;10.89;44.29;101343.22;5052080;28;20056;-75
2021/04/25 08:08:40;;;;;;;8.13;3.55;;;;;;;10.73;44.21;101343.13;5052073;28;20413;-76
2021/04/25 08:11:06;;;;;;;6.20;2.85;;;;;;;10.63;42.22;101351.84;5052063;28;20051;-75
2021/04/25 08:13:32;;;;;;;5.15;2.63;;;;;;;10.85;43.40;101362.56;5050410;28;20041;-75
2021/04/25 08:15:57;;;;;;;7.28;2.60;;;;;;;10.89;42.57;101364.34;5050985;28;20090;-76
2021/04/25 08:18:23;;;;;;;6.18;2.83;;;;;;;11.03;40.85;101359.13;5039397;28;20108;-76
2021/04/25 08:20:48;;;;;;;7.47;3.05;;;;;;;11.25;41.78;101360.13;5051943;28;20439;-76
2021/04/25 08:23:13;;;;;;;8.15;3.13;;;;;;;11.24;41.65;101353.97;5051612;28;20037;-76
2021/04/25 08:25:39;;;;;;;6.38;2.78;;;;;;;11.38;39.97;101356.66;5051764;28;20090;-76
2021/04/25 08:28:04;;;;;;;5.22;2.40;;;;;;;11.38;40.25;101354.88;5051768;28;20072;-76
2021/04/25 08:30:29;;;;;;;5.85;2.70;;;;;;;11.24;38.42;101356.63;5051655;28;20086;-76
2021/04/25 08:32:55;;;;;;;6.03;2.75;;;;;;;11.21;39.58;101358.34;5051443;28;20035;-76
2021/04/25 08:35:20;;;;;;;8.77;3.05;;;;;;;11.20;39.50;101352.19;5051483;28;20448;-76
2021/04/25 08:37:46;;;;;;;5.70;2.38;;;;;;;11.31;39.07;101349.56;5051164;28;20152;-76
2021/04/25 08:40:12;;;;;;;5.95;2.47;;;;;;;11.34;36.98;101345.19;5051532;28;20053;-74
2021/04/25 08:42:37;;;;;;;5.45;2.58;;;;;;;11.47;38.35;101345.22;5050996;28;20041;-74
2021/04/25 08:45:03;;;;;;;5.68;2.83;;;;;;;11.76;38.77;101351.50;5051476;28;20039;-74
2021/04/25 08:47:29;;;;;;;7.63;2.78;;;;;;;11.90;38.06;101348.91;5051300;28;20036;-74
2021/04/25 08:50:03;;;;;;;7.50;2.80;;;;;;;12.01;36.01;101349.78;5051584;28;20032;-75
2021/04/25 08:52:28;;;;;;;6.40;3.20;;;;;;;11.82;35.37;101353.25;5050956;28;20580;-75
2021/04/25 08:54:53;;;;;;;6.60;2.72;;;;;;;12.18;36.59;101346.25;5051220;28;20103;-75
2021/04/25 08:57:19;;;;;;;7.22;3.00;;;;;;;12.46;35.23;101347.13;5051206;28;20511;-75
2021/04/25 08:59:45;;;;;;;7.30;2.92;;;;;;;12.18;35.30;101348.91;5051259;28;20186;-74
2021/04/25 09:02:10;;;;;;;5.53;2.53;;;;;;;12.11;36.58;101350.69;5047295;28;20036;-74
2021/04/25 09:04:35;;;;;;;4.65;1.83;;;;;;;12.40;34.21;101349.81;5051010;28;20086;-74
2021/04/25 09:07:03;;;;;;;4.95;2.08;;;;;;;12.40;33.06;101353.31;5051070;28;20522;-74
2021/04/25 09:09:47;;;;;;;4.65;2.00;;;;;;;12.52;33.44;101352.41;5047208;28;20389;-74
2021/04/25 09:12:33;;;;;;;6.60;2.47;;;;;;;12.88;33.59;101337.34;5047322;28;20554;-71
2021/04/25 09:14:59;;;;;;;5.63;2.65;;;;;;;13.28;33.51;101335.50;5047622;28;20036;-73
2021/04/25 09:17:24;;;;;;;5.95;2.47;;;;;;;13.30;32.54;101335.47;5050829;28;20036;-74
2021/04/25 09:19:50;;;;;;;7.38;2.80;;;;;;;13.43;33.31;101328.34;5050937;28;20033;-73
2021/04/25 09:22:16;;;;;;;6.20;2.30;;;;;;;13.46;32.72;101329.19;5050736;28;20045;-74
2021/04/25 09:24:42;;;;;;;4.68;2.47;;;;;;;13.23;32.14;101333.69;5050857;28;20049;-73
2021/04/25 09:27:07;;;;;;;8.15;2.50;;;;;;;13.28;32.78;101337.22;5050892;28;20038;-73
2021/04/25 09:29:53;;;;;;;6.00;2.47;;;;;;;13.25;32.81;101346.03;5050873;28;20040;-74
2021/04/25 09:32:29;;;;;;;5.35;2.35;;;;;;;12.63;32.40;101331.25;5047796;28;20547;-74
2021/04/25 09:35:13;;;;;;;5.22;2.00;;;;;;;12.41;33.08;101330.38;5050439;28;20496;-74
2021/04/25 09:37:43;;;;;;;4.10;1.80;;;;;;;12.31;31.82;101331.25;5050721;28;20048;-74
2021/04/25 09:40:15;;;;;;;7.72;2.10;;;;;;;12.39;31.55;101340.06;5050868;28;20771;-72
2021/04/25 09:43:01;;;;;;;5.32;1.77;;;;;;;12.28;31.00;101329.50;5046534;28;20033;-73
2021/04/25 09:45:35;;;;;;;7.75;2.25;;;;;;;12.54;31.23;101328.59;5050711;28;20029;-72
2021/04/25 09:48:17;;;;;;;6.60;2.40;;;;;;;12.43;30.86;101331.25;5050679;28;20033;-73
2021/04/25 09:50:42;;;;;;;4.55;1.90;;;;;;;12.62;31.57;101317.09;5048887;28;20041;-72
2021/04/25 09:53:17;;;;;;;6.60;2.05;;;;;;;12.56;31.88;101322.41;5050309;28;20039;-72
2021/04/25 09:55:42;;;;;;;5.50;2.38;;;;;;;12.67;32.16;101317.97;5052526;28;20037;-73
2021/04/25 09:58:09;;;;;;;4.95;1.80;;;;;;;12.96;31.59;101326.72;5054490;28;20037;-73
2021/04/25 10:00:39;;;;;;;5.55;1.92;;;;;;;12.92;30.84;101325.88;5054445;28;20416;-73
2021/04/25 10:03:10;;;;;;;5.45;1.98;;;;;;;12.65;32.06;101326.81;5053913;28;20033;-73
2021/04/25 10:05:37;;;;;;;5.05;2.03;;;;;;;12.17;31.39;101334.78;5051940;28;20048;-73
2021/04/25 10:08:03;;;;;;;5.60;1.95;;;;;;;12.01;32.17;101327.75;5050356;28;20056;-73
2021/04/25 10:10:29;;;;;;;5.55;1.75;;;;;;;12.09;33.86;101330.41;5054329;28;20069;-73
2021/04/25 10:12:55;;;;;;;3.83;1.92;;;;;;;12.00;33.31;101326.00;5054419;28;20048;-72
2021/04/25 10:15:22;;;;;;;4.05;1.60;;;;;;;12.12;32.78;101330.38;5053574;28;20060;-73
2021/04/25 10:17:49;;;;;;;5.22;1.90;;;;;;;12.56;32.21;101327.72;5054225;28;20040;-72
2021/04/25 10:20:16;;;;;;;6.22;2.20;;;;;;;12.85;32.80;101337.38;5052935;28;20053;-72
2021/04/25 10:22:46;;;;;;;5.57;1.90;;;;;;;12.76;31.68;101324.13;5056214;28;20111;-73
2021/04/25 10:25:36;;;;;;;5.40;2.10;;;;;;;12.26;33.26;101333.91;5052506;28;20036;-73
2021/04/25 10:28:08;;;;;;;5.03;2.08;;;;;;;12.21;33.10;101331.28;5056483;28;20044;-73
2021/04/25 10:30:39;;;;;;;4.43;2.05;;;;;;;12.50;33.70;101333.03;5055945;28;20028;-72
2021/04/25 10:33:06;;;;;;;5.65;1.80;;;;;;;12.69;33.66;101333.88;5053117;28;20552;-72
2021/04/25 10:35:34;;;;;;;5.75;1.95;;;;;;;12.48;33.39;101329.50;5056594;28;20512;-72
2021/04/25 10:38:04;;;;;;;6.57;2.30;;;;;;;12.44;32.85;101340.97;5053822;28;20037;-73
2021/04/25 10:40:37;;;;;;;4.18;2.13;;;;;;;12.55;32.80;101325.06;5057188;28;20024;-73
2021/04/25 10:43:11;;;;;;;;;;;;;;;12.57;32.81;101337.41;5054545;28;20064;-73
2021/04/25 10:46:00;;;;;;;6.85;2.05;;;;;;;12.59;33.63;101325.06;5054888;28;19955;-73
2021/04/25 10:48:25;;;;;;;3.80;2.00;;;;;;;12.57;32.67;101324.16;5053356;28;20044;-73
2021/04/25 10:50:57;;;;;;;6.90;2.65;;;;;;;12.13;33.49;101327.75;5055243;28;20053;-73
2021/04/25 10:53:29;;;;;;;5.97;3.17;;;;;;;11.90;34.24;101350.66;5049591;28;20033;-72
2021/04/25 10:56:16;;;;;;;6.25;2.75;;;;;;;11.68;33.69;101324.13;5053467;28;20436;-72
2021/04/25 10:58:43;;;;;;;5.30;2.30;;;;;;;11.69;34.22;101325.91;5052315;28;20098;-73
2021/04/25 11:01:44;;;;;;;7.20;2.40;;;;;;;11.83;34.92;101336.50;5053300;28;20078;-73
2021/04/25 11:04:09;;;;;;;4.70;2.28;;;;;;;12.07;34.22;101333.03;5052091;28;20040;-73
2021/04/25 11:06:34;;;;;;;6.20;2.53;;;;;;;12.29;33.87;101328.63;5049474;28;20519;-72
2021/04/25 11:09:01;;;;;;;6.70;2.50;;;;;;;12.78;33.58;101330.31;5053483;28;20529;-72
2021/04/25 11:11:35;;;;;;;5.43;2.38;;;;;;;13.11;33.99;101322.25;5052954;28;20108;-72
2021/04/25 11:14:02;;;;;;;7.32;2.60;;;;;;;13.46;32.45;101317.72;5050376;28;20037;-73
2021/04/25 11:16:29;;;;;;;7.07;2.88;;;;;;;13.02;31.82;101329.34;5053181;28;20404;-73
2021/04/25 11:19:09;;;;;;;7.53;3.00;;;;;;;12.41;34.56;101323.31;5049579;28;20063;-73
2021/04/25 11:21:43;;;;;;;7.53;2.75;;;;;;;12.55;33.70;101320.66;5052779;28;20118;-72
2021/04/25 11:24:08;;;;;;;6.47;2.42;;;;;;;12.56;33.92;101319.78;5052904;28;20037;-73
2021/04/25 11:26:33;;;;;;;4.63;2.45;;;;;;;12.54;34.72;101324.19;5052779;28;20043;-73